Time;durP1;ratioP1;P1;durP2;ratioP2;P2;SDS_P1;SDS_P2;PMS_P1;PMS_P2;Temp;Humidity;BMP_temperature;BMP_pressure;BME280_temperature;BME280_humidity;BME280_pressure;Samples;Min_cycle;Max_cycle;Signal;HPM_P1;HPM_P2
2022/07/29 00:01:01;;;;;;;5.90;1.33;;;;;;;18.27;65.12;101016.31;4822493;29;20062;-58
2022/07/29 00:03:27;;;;;;;4.03;1.25;;;;;;;18.37;64.41;101016.41;4822047;29;20109;-56
2022/07/29 00:05:53;;;;;;;4.72;1.48;;;;;;;18.16;64.87;101019.97;4824756;29;20801;-56
2022/07/29 00:08:20;;;;;;;5.13;1.30;;;;;;;18.27;64.23;101024.44;4825791;29;20066;-57
2022/07/29 00:10:46;;;;;;;7.68;1.50;;;;;;;18.26;64.96;101014.66;4825948;29;20031;-57
2022/07/29 00:13:13;;;;;;;4.88;1.50;;;;;;;18.46;63.99;101019.50;4825432;29;20498;-58
2022/07/29 00:15:39;;;;;;;5.43;2.00;;;;;;;18.28;64.43;101017.94;4825977;29;20500;-57
2022/07/29 00:18:05;;;;;;;5.78;1.38;;;;;;;18.06;64.86;101017.13;4825627;29;20034;-57
2022/07/29 00:20:32;;;;;;;5.70;1.65;;;;;;;17.94;65.70;101018.06;4828448;29;20114;-57
2022/07/29 00:22:58;;;;;;;6.57;1.65;;;;;;;17.76;66.45;101031.06;4828682;29;20457;-55
2022/07/29 00:25:24;;;;;;;7.10;1.70;;;;;;;17.68;66.66;101019.56;4828537;29;20118;-55
2022/07/29 00:27:50;;;;;;;5.95;2.30;;;;;;;17.83;66.74;101010.88;4834473;29;20118;-56
2022/07/29 00:30:18;;;;;;;3.85;1.35;;;;;;;17.91;66.15;101004.19;4843029;29;20030;-56
2022/07/29 00:32:44;;;;;;;5.32;1.63;;;;;;;17.63;66.62;101011.34;4837110;29;20475;-57
2022/07/29 00:37:55;;;;;;;3.65;1.42;;;;;;;17.97;66.04;100999.66;4842652;29;20041;-57
2022/07/29 00:40:21;;;;;;;4.50;1.30;;;;;;;18.06;66.00;100998.97;4840276;29;20040;-56
2022/07/29 00:42:51;;;;;;;3.53;1.42;;;;;;;17.97;65.89;101010.50;4839484;29;20049;-57
2022/07/29 00:45:18;;;;;;;4.20;1.73;;;;;;;17.62;66.64;101009.72;4824995;29;20109;-58
2022/07/29 00:47:45;;;;;;;6.90;1.75;;;;;;;17.36;67.95;101007.69;4840331;29;20086;-58
2022/07/29 00:50:13;;;;;;;7.72;2.22;;;;;;;17.53;68.27;101002.28;4843192;29;20030;-57
2022/07/29 00:52:42;;;;;;;6.38;1.38;;;;;;;17.32;68.67;101004.69;4843350;29;20468;-57
2022/07/29 00:55:11;;;;;;;6.47;1.80;;;;;;;17.19;69.92;101005.00;4837223;29;20464;-57
2022/07/29 00:57:38;;;;;;;6.05;1.65;;;;;;;17.29;69.69;100994.34;4825086;29;20037;-58
2022/07/29 01:00:07;;;;;;;5.88;1.73;;;;;;;17.23;68.81;101000.75;4825268;29;20030;-58
2022/07/29 01:02:33;;;;;;;5.50;1.75;;;;;;;17.33;68.98;100992.78;4838448;29;20184;-58
2022/07/29 01:05:00;;;;;;;4.32;1.63;;;;;;;17.05;69.54;100991.00;4830410;29;20574;-58
2022/07/29 01:07:27;;;;;;;6.72;2.05;;;;;;;17.12;69.41;100988.94;4834924;29;20479;-55
2022/07/29 01:09:55;;;;;;;5.95;1.85;;;;;;;17.01;70.01;100997.13;4834715;29;20025;-57
2022/07/29 01:12:25;;;;;;;4.50;1.42;;;;;;;16.85;70.70;100993.34;4834058;29;20495;-58
2022/07/29 01:14:53;;;;;;;4.65;2.08;;;;;;;17.04;70.51;100994.72;4828082;29;20038;-57
2022/07/29 01:17:40;;;;;;;4.22;1.95;;;;;;;17.15;70.06;100988.44;4835240;29;20082;-57
2022/07/29 01:20:48;;;;;;;6.18;1.95;;;;;;;16.95;70.58;100990.81;4844199;24;20416;-57
2022/07/29 01:23:32;;;;;;;7.30;2.20;;;;;;;16.93;70.55;100990.22;4816220;29;20525;-58
2022/07/29 01:26:30;;;;;;;6.80;1.83;;;;;;;16.78;71.05;100984.56;4839256;29;20052;-60
2022/07/29 01:29:25;;;;;;;4.10;1.80;;;;;;;16.82;70.98;100988.41;4816700;29;20046;-55
2022/07/29 01:31:59;;;;;;;6.95;1.85;;;;;;;16.83;71.07;100995.47;4833905;29;20113;-54
2022/07/29 01:34:35;;;;;;;7.22;1.75;;;;;;;16.88;70.71;100998.28;4842062;29;20098;-55
2022/07/29 01:37:23;;;;;;;5.40;1.85;;;;;;;16.51;72.12;100997.81;4841672;29;20026;-67
2022/07/29 01:39:54;;;;;;;7.30;1.75;;;;;;;16.51;72.05;100995.94;4838028;29;20042;-67
2022/07/29 01:42:38;;;;;;;4.60;1.88;;;;;;;16.50;72.25;100997.00;4840378;29;20475;-57
2022/07/29 01:45:26;;;;;;;3.63;1.50;;;;;;;16.33;72.93;100999.66;4841805;29;20044;-55
2022/07/29 01:48:19;;;;;;;3.65;1.42;;;;;;;16.61;72.07;100993.44;4842222;29;20037;-56
2022/07/29 01:50:54;;;;;;;6.30;1.58;;;;;;;16.42;73.02;100988.44;4839731;29;20036;-56
2022/07/29 01:53:46;;;;;;;4.47;1.70;;;;;;;16.37;72.85;100992.69;4825079;29;20392;-55
2022/07/29 01:56:16;;;;;;;4.95;1.38;;;;;;;16.33;73.19;100993.44;4836222;29;20079;-56
2022/07/29 01:58:45;;;;;;;5.18;1.60;;;;;;;16.39;73.15;100997.06;4828214;29;20095;-55
2022/07/29 02:01:13;;;;;;;4.25;1.38;;;;;;;15.95;74.30;100986.72;4827266;29;20030;-56
2022/07/29 02:03:43;;;;;;;3.97;1.42;;;;;;;15.98;74.49;101005.13;4832480;29;20040;-55
2022/07/29 02:06:11;;;;;;;5.55;1.60;;;;;;;15.95;74.94;101002.91;4837776;29;20383;-56
2022/07/29 02:08:39;;;;;;;6.22;1.80;;;;;;;15.93;75.58;100998.78;4831889;29;20022;-56
2022/07/29 02:11:07;;;;;;;4.57;1.90;;;;;;;16.02;74.70;101000.91;4845830;29;20095;-56
2022/07/29 02:13:35;;;;;;;5.47;1.80;;;;;;;15.95;75.12;101005.63;4849039;29;20041;-56
2022/07/29 02:16:05;;;;;;;4.60;1.67;;;;;;;15.82;75.87;101009.41;4841996;29;20068;-56
2022/07/29 02:18:33;;;;;;;3.08;1.20;;;;;;;15.72;76.28;100995.69;4842244;29;20086;-56
2022/07/29 02:21:01;;;;;;;5.20;2.00;;;;;;;15.71;76.89;100998.59;4856536;29;20041;-56
2022/07/29 02:23:27;;;;;;;8.38;1.77;;;;;;;15.69;76.75;101006.09;4860704;29;20029;-56
2022/07/29 02:25:57;;;;;;;3.83;1.63;;;;;;;15.64;76.66;101003.28;4846755;29;20041;-57
2022/07/29 02:28:26;;;;;;;3.20;1.67;;;;;;;15.51;77.55;100994.34;4841702;29;20398;-57
2022/07/29 02:30:55;;;;;;;4.10;1.38;;;;;;;15.48;77.62;101004.78;4827152;29;20026;-57
2022/07/29 02:33:24;;;;;;;11.65;2.58;;;;;;;15.64;77.42;101014.09;4824114;29;20037;-58
2022/07/29 02:35:51;;;;;;;5.05;1.60;;;;;;;15.66;76.99;101012.81;4824167;29;20038;-57
2022/07/29 02:41:08;;;;;;;4.60;1.63;;;;;;;15.64;77.30;101009.50;4830540;29;20053;-57
2022/07/29 02:43:35;;;;;;;5.50;1.45;;;;;;;15.55;77.47;101019.00;4823666;29;20038;-57
2022/07/29 02:46:08;;;;;;;6.05;1.42;;;;;;;15.43;77.91;101013.56;4840598;29;20126;-57
2022/07/29 02:48:41;;;;;;;4.78;1.60;;;;;;;15.32;78.64;101014.38;4824138;29;20034;-57
2022/07/29 02:51:18;;;;;;;4.38;1.30;;;;;;;15.38;78.70;101015.31;4823431;29;20062;-57
2022/07/29 02:53:51;;;;;;;2.75;1.15;;;;;;;15.37;78.39;101011.00;4829020;29;20038;-57
2022/07/29 02:56:23;;;;;;;5.03;1.48;;;;;;;15.33;78.94;101013.34;4813414;29;20025;-57
2022/07/29 02:59:01;;;;;;;6.25;1.52;;;;;;;15.41;78.53;101015.69;4851395;29;20026;-57
2022/07/29 03:01:32;;;;;;;4.90;1.27;;;;;;;15.36;78.95;101007.47;4814484;29;20389;-57
2022/07/29 03:04:01;;;;;;;7.05;1.40;;;;;;;15.47;78.41;101017.44;4843254;29;20443;-57
2022/07/29 03:06:29;;;;;;;3.10;1.38;;;;;;;15.50;78.23;101026.97;4822904;29;20531;-57
2022/07/29 03:08:57;;;;;;;4.32;1.58;;;;;;;15.37;79.04;101024.47;4823223;29;20058;-57
2022/07/29 03:11:24;;;;;;;5.45;1.63;;;;;;;15.35;78.54;101027.41;4822603;29;20540;-57
2022/07/29 03:13:51;;;;;;;4.15;1.23;;;;;;;15.20;79.26;101027.84;4822859;29;20035;-57
2022/07/29 03:16:19;;;;;;;6.10;1.30;;;;;;;15.04;80.23;101037.44;4822734;29;20480;-57
2022/07/29 03:18:47;;;;;;;3.63;1.35;;;;;;;15.00;80.91;101030.06;4823356;29;20091;-57
2022/07/29 03:21:13;;;;;;;4.53;1.48;;;;;;;15.16;80.07;101036.66;4823996;29;20054;-57
2022/07/29 03:23:45;;;;;;;4.45;1.42;;;;;;;15.04;80.58;101037.44;4823396;29;20082;-57
2022/07/29 03:26:12;;;;;;;3.95;1.17;;;;;;;15.00;80.62;101035.44;4823046;29;20058;-57
2022/07/29 03:28:38;;;;;;;3.35;1.35;;;;;;;15.03;80.46;101035.78;4823049;29;20030;-57
2022/07/29 03:31:04;;;;;;;3.55;0.90;;;;;;;15.09;80.06;101034.03;4826856;29;20450;-57
2022/07/29 03:33:30;;;;;;;2.65;1.10;;;;;;;15.06;80.42;101031.84;4853905;29;20040;-57
2022/07/29 03:35:58;;;;;;;3.97;1.40;;;;;;;15.02;80.41;101031.47;4859213;29;20029;-57
2022/07/29 03:38:29;;;;;;;2.97;1.05;;;;;;;15.00;80.53;101025.50;4836796;29;20047;-56
2022/07/29 03:41:01;;;;;;;4.97;1.00;;;;;;;15.08;79.93;101035.09;4824701;29;20118;-57
2022/07/29 03:43:33;;;;;;;3.28;1.30;;;;;;;14.92;80.46;101028.50;4826523;29;20034;-57
2022/07/29 03:46:00;;;;;;;2.58;1.33;;;;;;;14.92;80.77;101028.50;4826128;29;20099;-57
2022/07/29 03:48:29;;;;;;;3.25;1.20;;;;;;;14.99;80.85;101033.78;4836987;29;20034;-57
2022/07/29 03:50:56;;;;;;;4.47;1.00;;;;;;;14.93;81.29;101038.22;4844378;29;20398;-57
2022/07/29 03:53:22;;;;;;;3.40;1.00;;;;;;;14.88;81.58;101032.72;4844595;29;20040;-57
2022/07/29 03:55:53;;;;;;;2.90;0.80;;;;;;;14.92;81.51;101036.59;4833392;29;20062;-57
2022/07/29 03:58:21;;;;;;;3.30;0.90;;;;;;;14.78;81.66;101029.75;4844384;29;20022;-57
2022/07/29 04:00:48;;;;;;;1.73;0.80;;;;;;;14.85;81.08;101033.16;4840777;29;20504;-57
2022/07/29 04:03:14;;;;;;;2.72;1.00;;;;;;;14.77;81.06;101033.50;4827004;29;20087;-57
2022/07/29 04:05:41;;;;;;;4.93;0.70;;;;;;;14.85;80.70;101035.88;4822934;29;20034;-57
2022/07/29 04:08:07;;;;;;;1.63;0.60;;;;;;;14.82;80.92;101040.88;4825428;29;20400;-57
2022/07/29 04:10:33;;;;;;;2.45;0.85;;;;;;;14.77;81.10;101041.59;4835931;29;20365;-58
2022/07/29 04:13:00;;;;;;;8.52;1.33;;;;;;;14.72;81.43;101036.06;4825820;29;20038;-57
2022/07/29 04:15:28;;;;;;;3.28;0.77;;;;;;;14.74;81.36;101039.34;4836521;29;20030;-57
2022/07/29 04:17:55;;;;;;;1.70;0.70;;;;;;;14.72;81.46;101046.84;4829182;29;20153;-56
2022/07/29 04:20:21;;;;;;;2.65;0.80;;;;;;;14.72;81.06;101038.75;4827379;29;20054;-57
2022/07/29 04:22:47;;;;;;;1.10;0.55;;;;;;;14.76;80.93;101040.75;4825418;29;20621;-58
2022/07/29 04:25:13;;;;;;;3.35;0.80;;;;;;;14.84;81.22;101044.19;4824294;29;20069;-57
2022/07/29 04:27:59;;;;;;;1.23;0.52;;;;;;;14.85;81.40;101046.66;4825670;29;20046;-57
2022/07/29 04:30:26;;;;;;;2.22;0.93;;;;;;;14.81;81.67;101050.84;4825389;29;20048;-57
2022/07/29 04:32:52;;;;;;;2.97;0.75;;;;;;;14.71;82.01;101053.25;4824880;29;20026;-57
2022/07/29 04:35:21;;;;;;;1.77;0.40;;;;;;;14.75;82.04;101046.38;4835793;29;20038;-57
2022/07/29 04:37:48;;;;;;;1.42;0.50;;;;;;;14.81;81.78;101055.41;4824994;29;20038;-57
2022/07/29 04:40:14;;;;;;;2.97;0.75;;;;;;;14.78;81.90;101059.41;4825147;29;20030;-57
2022/07/29 04:42:41;;;;;;;1.40;0.90;;;;;;;14.89;81.75;101066.72;4823167;29;20036;-57
2022/07/29 04:45:07;;;;;;;2.97;1.08;;;;;;;14.77;82.05;101063.16;4825517;29;20030;-57
2022/07/29 04:47:33;;;;;;;1.95;0.93;;;;;;;14.59;83.27;101066.69;4826698;29;20034;-57
2022/07/29 04:50:00;;;;;;;0.85;0.40;;;;;;;14.74;82.65;101066.28;4843763;29;20081;-57
2022/07/29 04:52:26;;;;;;;1.95;1.00;;;;;;;14.73;82.72;101068.16;4839951;29;20105;-58
2022/07/29 04:54:52;;;;;;;2.50;0.75;;;;;;;14.62;82.72;101068.94;4824787;29;20032;-57
2022/07/29 04:57:19;;;;;;;1.48;0.63;;;;;;;14.64;82.69;101069.50;4824182;29;20038;-57
2022/07/29 04:59:45;;;;;;;1.70;0.60;;;;;;;14.63;82.71;101069.75;4825264;29;20053;-58
2022/07/29 05:02:11;;;;;;;0.77;0.47;;;;;;;14.68;82.60;101069.91;4839066;29;20479;-57
2022/07/29 05:04:37;;;;;;;3.40;0.90;;;;;;;14.63;82.96;101078.66;4843160;29;20037;-57
2022/07/29 05:07:03;;;;;;;0.90;0.60;;;;;;;14.53;83.50;101084.56;4824039;29;20062;-57
2022/07/29 05:09:31;;;;;;;2.20;0.60;;;;;;;14.65;83.55;101083.81;4842236;29;20388;-57
2022/07/29 05:11:58;;;;;;;1.00;0.40;;;;;;;14.69;82.86;101076.91;4841091;29;20529;-57
2022/07/29 05:14:24;;;;;;;3.13;0.40;;;;;;;14.66;82.60;101088.16;4841363;29;20503;-57
2022/07/29 05:16:50;;;;;;;1.42;0.47;;;;;;;14.59;83.71;101087.41;4838686;29;20042;-57
2022/07/29 05:19:17;;;;;;;1.40;0.50;;;;;;;14.51;84.12;101070.50;4842886;29;20480;-57
2022/07/29 05:21:44;;;;;;;1.63;0.50;;;;;;;14.64;83.34;101083.00;4842149;29;20085;-57
2022/07/29 05:24:11;;;;;;;2.15;0.40;;;;;;;14.54;84.44;101082.69;4824047;29;20046;-57
2022/07/29 05:26:37;;;;;;;1.58;0.60;;;;;;;14.51;84.32;101080.47;4824456;29;20030;-57
2022/07/29 05:29:03;;;;;;;2.17;0.75;;;;;;;14.48;85.14;101089.00;4839800;29;20029;-57
2022/07/29 05:31:29;;;;;;;3.97;0.80;;;;;;;14.54;84.87;101082.69;4842422;29;20546;-57
2022/07/29 05:33:56;;;;;;;3.13;0.50;;;;;;;14.49;85.01;101088.78;4840437;29;20038;-57
2022/07/29 05:36:22;;;;;;;2.03;0.70;;;;;;;14.56;85.28;101082.50;4831052;29;20062;-57
2022/07/29 05:38:48;;;;;;;3.60;0.80;;;;;;;14.47;85.84;101081.97;4824238;29;20027;-57
2022/07/29 05:41:14;;;;;;;2.30;0.65;;;;;;;14.48;86.13;101087.13;4831355;29;20479;-57
2022/07/29 05:43:40;;;;;;;1.30;0.60;;;;;;;14.53;85.88;101081.06;4842482;29;20037;-57
2022/07/29 05:46:06;;;;;;;2.25;0.80;;;;;;;14.49;85.90;101077.16;4840527;29;20038;-57
2022/07/29 05:48:33;;;;;;;3.60;0.80;;;;;;;14.56;85.15;101072.53;4830602;29;20103;-57
2022/07/29 05:50:59;;;;;;;2.78;1.00;;;;;;;14.52;85.24;101077.53;4828870;29;20026;-57
2022/07/29 05:53:25;;;;;;;1.45;0.60;;;;;;;14.37;86.06;101070.84;4842232;29;20452;-57
2022/07/29 05:55:52;;;;;;;1.55;0.93;;;;;;;14.47;85.60;101063.94;4840672;29;20041;-57
2022/07/29 05:58:18;;;;;;;2.50;0.70;;;;;;;14.45;85.70;101071.38;4842322;29;20380;-58
2022/07/29 06:00:44;;;;;;;1.88;0.90;;;;;;;14.47;85.88;101076.56;4838760;29;20046;-57
2022/07/29 06:03:11;;;;;;;1.92;0.95;;;;;;;14.37;86.41;101090.53;4823529;29;20038;-57
2022/07/29 06:05:37;;;;;;;4.90;1.33;;;;;;;14.53;85.80;101089.13;4823805;29;20041;-57
2022/07/29 06:08:07;;;;;;;3.58;1.10;;;;;;;14.57;85.56;101089.53;4824095;29;20041;-57
2022/07/29 06:10:36;;;;;;;5.30;1.63;;;;;;;14.51;85.57;101086.69;4823673;29;20038;-57
2022/07/29 06:13:02;;;;;;;3.33;1.10;;;;;;;14.60;84.95;101075.56;4824199;29;20038;-57
2022/07/29 06:15:28;;;;;;;3.08;0.90;;;;;;;14.64;84.10;101066.00;4823350;29;20069;-57
2022/07/29 06:17:54;;;;;;;2.53;1.08;;;;;;;14.61;84.27;101070.00;4839219;29;20069;-57
2022/07/29 06:20:21;;;;;;;2.85;1.27;;;;;;;14.65;84.50;101081.94;4827567;29;20050;-57
2022/07/29 06:22:47;;;;;;;4.32;1.20;;;;;;;14.74;84.17;101082.44;4823542;29;20121;-57
2022/07/29 06:25:14;;;;;;;3.45;1.20;;;;;;;14.69;83.87;101076.91;4823639;29;20049;-57
2022/07/29 06:27:40;;;;;;;4.05;1.33;;;;;;;14.73;83.98;101076.25;4823922;29;20063;-57
2022/07/29 06:30:07;;;;;;;5.50;1.55;;;;;;;14.70;84.11;101084.78;4823733;29;20086;-57
2022/07/29 06:32:33;;;;;;;4.78;1.50;;;;;;;14.70;84.41;101083.94;4823465;29;20604;-57
2022/07/29 06:35:00;;;;;;;3.92;1.48;;;;;;;14.68;84.16;101072.59;4823210;29;20124;-57
2022/07/29 06:37:26;;;;;;;7.30;1.70;;;;;;;14.72;84.26;101076.47;4823952;29;20038;-57
2022/07/29 06:40:59;;;;;;;3.40;1.10;;;;;;;14.80;83.86;101073.47;4822773;29;20142;-57
2022/07/29 06:42:42;;;;;;;4.90;2.05;;;;;;;14.77;83.75;101080.13;4822635;29;20400;-57
2022/07/29 06:45:10;;;;;;;2.40;0.95;;;;;;;14.85;83.42;101081.69;4823225;29;20034;-57
2022/07/29 06:47:37;;;;;;;3.10;0.93;;;;;;;14.79;83.80;101083.41;4822871;29;20027;-57
2022/07/29 06:50:04;;;;;;;2.13;0.93;;;;;;;14.81;83.37;101080.47;4822942;29;20120;-57
2022/07/29 06:52:30;;;;;;;2.60;0.70;;;;;;;14.82;82.62;101084.81;4821458;29;20065;-57
2022/07/29 06:54:57;;;;;;;3.28;0.93;;;;;;;14.84;82.61;101088.13;4820103;29;20060;-58
2022/07/29 06:57:23;;;;;;;4.18;0.98;;;;;;;14.90;82.33;101089.09;4823034;29;20034;-57
2022/07/29 06:59:49;;;;;;;1.85;0.68;;;;;;;14.88;82.49;101099.25;4822861;29;20441;-57
2022/07/29 07:02:15;;;;;;;6.13;1.45;;;;;;;14.71;83.47;101091.81;4831391;29;20040;-57
2022/07/29 07:04:42;;;;;;;2.30;0.73;;;;;;;14.73;83.34;101089.72;4840564;29;20562;-58
2022/07/29 07:07:08;;;;;;;2.88;0.77;;;;;;;14.74;82.91;101095.94;4840660;29;20082;-57
2022/07/29 07:09:34;;;;;;;1.75;1.08;;;;;;;14.83;82.53;101086.50;4841238;29;20140;-57
2022/07/29 07:12:00;;;;;;;2.13;0.60;;;;;;;14.70;82.82;101090.16;4841241;29;20483;-57
2022/07/29 07:14:27;;;;;;;2.50;0.60;;;;;;;14.80;82.54;101089.63;4822221;29;20038;-57
2022/07/29 07:16:53;;;;;;;1.20;0.57;;;;;;;14.74;82.73;101093.22;4823153;29;20042;-57
2022/07/29 07:19:20;;;;;;;1.70;0.65;;;;;;;14.80;82.74;101105.78;4823366;29;20117;-57
2022/07/29 07:21:46;;;;;;;2.08;0.60;;;;;;;14.84;82.14;101104.28;4840746;29;20057;-57
2022/07/29 07:24:13;;;;;;;1.08;0.60;;;;;;;14.80;82.87;101100.41;4841007;29;20038;-57
2022/07/29 07:26:39;;;;;;;1.45;0.60;;;;;;;14.78;83.08;101105.22;4841077;29;20068;-57
2022/07/29 07:29:06;;;;;;;2.22;0.60;;;;;;;14.86;83.08;101096.78;4841129;29;20034;-57
2022/07/29 07:31:32;;;;;;;1.15;0.57;;;;;;;14.91;82.26;101096.13;4841064;29;20030;-57
2022/07/29 07:33:58;;;;;;;1.85;0.68;;;;;;;14.86;82.14;101095.97;4840789;29;20396;-57
2022/07/29 07:36:25;;;;;;;1.00;0.50;;;;;;;14.92;81.39;101103.97;4840680;29;20452;-57
2022/07/29 07:38:51;;;;;;;1.45;0.35;;;;;;;14.88;81.67;101097.41;4841080;29;20388;-57
2022/07/29 07:41:17;;;;;;;1.50;0.60;;;;;;;15.02;81.63;101100.72;4840513;29;20038;-57
2022/07/29 07:43:43;;;;;;;1.83;0.52;;;;;;;14.97;82.16;101095.19;4840900;29;20086;-57
2022/07/29 07:46:09;;;;;;;0.85;0.40;;;;;;;15.13;81.65;101104.53;4840884;29;20451;-57
2022/07/29 07:48:36;;;;;;;2.60;0.70;;;;;;;14.99;81.55;101099.31;4828363;29;20030;-57
2022/07/29 07:51:02;;;;;;;1.27;0.50;;;;;;;15.06;81.39;101093.84;4822392;29;20225;-57
2022/07/29 07:53:29;;;;;;;1.48;0.40;;;;;;;15.08;80.98;101088.22;4822702;29;20054;-58
2022/07/29 07:55:55;;;;;;;1.92;0.63;;;;;;;15.11;80.97;101093.16;4822652;29;20459;-58
2022/07/29 07:58:22;;;;;;;2.33;0.38;;;;;;;15.14;80.97;101089.97;4822544;29;20071;-57
2022/07/29 08:00:48;;;;;;;2.72;0.50;;;;;;;15.09;80.69;101095.25;4822144;29;20030;-58
2022/07/29 08:03:14;;;;;;;1.80;0.70;;;;;;;15.17;80.39;101093.06;4822359;29;20030;-57
2022/07/29 08:05:41;;;;;;;0.60;0.40;;;;;;;15.23;80.00;101077.81;4822112;29;20041;-57
2022/07/29 08:08:07;;;;;;;0.75;0.60;;;;;;;15.25;79.98;101076.53;4822642;29;20058;-57
2022/07/29 08:10:52;;;;;;;1.00;0.55;;;;;;;15.09;80.67;101077.19;4822198;29;20030;-57
2022/07/29 08:13:20;;;;;;;1.35;0.50;;;;;;;15.23;80.11;101078.66;4822631;29;20062;-57
2022/07/29 08:15:47;;;;;;;1.77;0.52;;;;;;;15.15;80.58;101070.88;4837046;29;20030;-58
2022/07/29 08:18:13;;;;;;;1.20;0.47;;;;;;;15.16;80.49;101063.63;4840397;29;20036;-57
2022/07/29 08:20:40;;;;;;;0.85;0.57;;;;;;;15.07;81.36;101065.00;4840085;29;20050;-57
2022/07/29 08:23:10;;;;;;;2.47;0.70;;;;;;;15.01;81.80;101064.03;4840531;29;20049;-57
2022/07/29 08:25:41;;;;;;;1.30;0.60;;;;;;;15.08;81.22;101063.94;4840620;29;20034;-57
2022/07/29 08:28:07;;;;;;;1.15;0.45;;;;;;;15.13;80.51;101059.50;4844249;29;20070;-57
2022/07/29 08:30:34;;;;;;;2.15;0.50;;;;;;;14.99;80.94;101058.91;4843486;29;20037;-57
2022/07/29 08:33:00;;;;;;;3.88;0.70;;;;;;;15.15;80.68;101060.09;4843825;29;20159;-57
2022/07/29 08:35:27;;;;;;;3.10;0.68;;;;;;;15.19;80.69;101063.16;4843844;29;20030;-57
2022/07/29 08:37:54;;;;;;;1.50;0.68;;;;;;;15.16;80.59;101058.25;4843599;29;20432;-57
2022/07/29 08:40:23;;;;;;;3.45;0.70;;;;;;;15.07;81.25;101056.91;4843571;29;20395;-57
2022/07/29 08:42:50;;;;;;;2.25;0.77;;;;;;;15.17;81.01;101057.19;4844042;29;20049;-57
2022/07/29 08:45:16;;;;;;;0.77;0.45;;;;;;;15.07;81.09;101059.59;4843327;29;20037;-58
2022/07/29 08:47:46;;;;;;;1.83;0.52;;;;;;;15.05;80.98;101059.84;4837853;29;20167;-57
2022/07/29 08:50:12;;;;;;;1.63;0.55;;;;;;;14.94;81.48;101064.16;4824802;29;20115;-57
2022/07/29 08:52:41;;;;;;;2.78;0.50;;;;;;;15.13;80.97;101056.00;4825247;29;20032;-57
2022/07/29 08:55:09;;;;;;;0.88;0.50;;;;;;;15.13;80.72;101053.28;4825387;29;20448;-57
2022/07/29 08:57:38;;;;;;;1.63;0.60;;;;;;;15.02;81.33;101058.41;4825212;29;20392;-57
2022/07/29 09:00:06;;;;;;;2.35;0.68;;;;;;;15.01;81.27;101055.97;4825015;29;20034;-57
2022/07/29 09:02:39;;;;;;;1.58;0.80;;;;;;;14.93;82.17;101058.97;4825075;29;20027;-57
2022/07/29 09:05:06;;;;;;;1.60;0.57;;;;;;;14.86;82.59;101050.16;4825079;29;20045;-57
2022/07/29 09:07:32;;;;;;;2.00;0.60;;;;;;;14.86;82.01;101053.66;4824570;29;20026;-57
2022/07/29 09:10:00;;;;;;;5.38;0.73;;;;;;;14.89;82.16;101050.53;4824874;29;20523;-57
2022/07/29 09:12:26;;;;;;;0.93;0.70;;;;;;;14.81;82.37;101056.22;4824460;29;20039;-57
2022/07/29 09:14:53;;;;;;;2.70;0.60;;;;;;;14.87;82.45;101044.53;4824679;29;20105;-57
2022/07/29 09:17:40;;;;;;;3.78;0.50;;;;;;;14.85;82.41;101054.72;4824680;29;20505;-57
2022/07/29 09:20:12;;;;;;;1.55;0.40;;;;;;;14.95;81.74;101049.63;4824372;29;20057;-57
2022/07/29 09:22:38;;;;;;;1.13;0.55;;;;;;;14.73;82.48;101048.47;4824670;29;20384;-57
2022/07/29 09:25:04;;;;;;;2.88;0.63;;;;;;;14.74;82.55;101042.84;4824651;29;20050;-57
2022/07/29 09:27:31;;;;;;;2.08;0.32;;;;;;;14.85;82.00;101052.03;4824278;29;20030;-57
2022/07/29 09:30:01;;;;;;;1.45;0.40;;;;;;;14.76;82.46;101034.53;4824357;29;20046;-57
2022/07/29 09:32:28;;;;;;;1.60;0.32;;;;;;;14.81;82.83;101041.94;4824615;29;20061;-57
2022/07/29 09:35:23;;;;;;;1.42;0.40;;;;;;;14.78;82.87;101040.53;4824474;29;20118;-57
2022/07/29 09:37:50;;;;;;;0.93;0.40;;;;;;;14.81;82.01;101042.75;4823277;29;20042;-58
2022/07/29 09:40:18;;;;;;;0.93;0.40;;;;;;;14.83;82.07;101029.91;4824144;29;20392;-57
2022/07/29 09:42:45;;;;;;;2.47;0.55;;;;;;;14.78;82.66;101033.28;4824346;29;20034;-57
2022/07/29 09:45:12;;;;;;;1.67;0.50;;;;;;;14.72;83.06;101044.16;4824416;29;20038;-57
2022/07/29 09:47:44;;;;;;;0.93;0.40;;;;;;;14.72;83.18;101038.75;4824617;29;20035;-57
2022/07/29 09:50:11;;;;;;;0.93;0.30;;;;;;;14.76;82.89;101037.22;4824009;29;20105;-57
2022/07/29 09:52:50;;;;;;;1.27;0.40;;;;;;;14.84;83.04;101030.72;4824055;29;20034;-57
2022/07/29 09:55:17;;;;;;;1.58;0.30;;;;;;;14.71;83.81;101034.41;4824339;29;20126;-58
2022/07/29 09:57:44;;;;;;;1.40;0.32;;;;;;;14.63;83.62;101032.84;4823731;29;20030;-57
2022/07/29 10:00:19;;;;;;;3.50;0.50;;;;;;;14.64;83.08;101042.56;4824241;29;20580;-57
2022/07/29 10:02:47;;;;;;;1.08;0.47;;;;;;;14.68;83.08;101043.78;4823918;29;20043;-57
2022/07/29 10:05:24;;;;;;;1.30;0.30;;;;;;;14.73;83.11;101048.47;4824013;29;20042;-57
2022/07/29 10:07:56;;;;;;;3.00;0.35;;;;;;;14.76;82.85;101043.44;4823596;29;20030;-57
2022/07/29 10:10:33;;;;;;;0.63;0.30;;;;;;;14.81;82.96;101048.16;4823859;29;20472;-57
2022/07/29 10:13:05;;;;;;;0.65;0.30;;;;;;;14.76;83.08;101046.13;4823760;29;20102;-57
2022/07/29 10:15:36;;;;;;;2.03;0.52;;;;;;;14.65;83.64;101040.69;4823867;29;20034;-57
2022/07/29 10:18:03;;;;;;;0.47;0.40;;;;;;;14.72;83.19;101038.75;4823846;29;20037;-58
2022/07/29 10:20:30;;;;;;;0.77;0.57;;;;;;;14.75;83.36;101043.69;4823418;29;20061;-57
2022/07/29 10:22:56;;;;;;;0.40;0.40;;;;;;;14.75;83.49;101043.69;4824063;29;20121;-57
2022/07/29 10:25:24;;;;;;;0.50;0.38;;;;;;;14.86;82.89;101036.69;4823484;29;20500;-57
2022/07/29 10:27:51;;;;;;;0.10;0.10;;;;;;;14.85;82.76;101046.66;4823352;29;20341;-57
2022/07/29 10:30:19;;;;;;;0.50;0.30;;;;;;;14.82;nan;101047.09;4823498;29;20369;-57
2022/07/29 10:32:57;;;;;;;1.10;0.50;;;;;;;14.55;84.98;101032.34;4823623;29;20254;-58
2022/07/29 10:35:44;;;;;;;2.50;0.70;;;;;;;14.73;84.78;101046.59;4823587;29;20080;-57
2022/07/29 10:38:31;;;;;;;0.68;0.40;;;;;;;14.75;84.71;101047.19;4823485;29;20113;-57
2022/07/29 10:43:47;;;;;;;1.23;0.50;;;;;;;14.55;85.53;101045.81;4823506;29;20079;-57
2022/07/29 10:46:14;;;;;;;0.47;0.40;;;;;;;14.68;84.71;101051.03;4823455;29;20030;-57
2022/07/29 10:49:06;;;;;;;1.65;0.68;;;;;;;14.68;84.40;101042.94;4823216;29;20033;-58
2022/07/29 10:51:55;;;;;;;1.85;0.50;;;;;;;14.67;85.23;101047.53;4823482;29;20038;-57
2022/07/29 10:54:50;;;;;;;3.50;0.50;;;;;;;14.60;85.47;101059.41;4837924;29;20089;-57
2022/07/29 10:57:28;;;;;;;3.10;0.40;;;;;;;14.65;85.09;101056.88;4841050;29;20030;-57
2022/07/29 11:00:08;;;;;;;1.33;0.30;;;;;;;14.61;85.37;101058.38;4839758;29;20075;-58
2022/07/29 11:05:08;;;;;;;2.60;0.40;;;;;;;14.56;84.99;101066.31;4841121;29;20037;-57
2022/07/29 11:07:36;;;;;;;0.57;0.45;;;;;;;14.56;84.50;101052.84;4841273;29;20062;-57
2022/07/29 11:10:15;;;;;;;1.17;0.38;;;;;;;14.64;84.86;101047.16;4841005;29;20030;-58
2022/07/29 11:12:41;;;;;;;12.07;0.75;;;;;;;14.56;85.51;101044.78;4841162;29;20037;-57
2022/07/29 11:15:21;;;;;;;0.93;0.50;;;;;;;14.77;84.80;101057.75;4841269;29;20542;-58
2022/07/29 11:17:53;;;;;;;0.40;0.30;;;;;;;14.73;85.50;101051.19;4841066;29;20037;-58
2022/07/29 11:20:37;;;;;;;1.17;0.50;;;;;;;14.74;84.56;101056.31;4840746;29;20056;-57
2022/07/29 11:23:28;;;;;;;0.40;0.40;;;;;;;14.69;84.79;101058.06;4841187;29;20488;-57
2022/07/29 11:26:27;;;;;;;0.60;0.40;;;;;;;14.72;84.18;101052.22;4834919;29;20067;-57
2022/07/29 11:28:53;;;;;;;2.28;0.55;;;;;;;14.87;82.93;101049.94;4823062;29;20026;-57
2022/07/29 11:31:42;;;;;;;1.75;0.60;;;;;;;14.93;82.72;101046.31;4822780;29;20030;-57
2022/07/29 11:34:22;;;;;;;0.80;0.25;;;;;;;14.84;82.85;101038.81;4823149;29;20026;-57
2022/07/29 11:37:13;;;;;;;1.40;0.30;;;;;;;14.94;82.37;101047.97;4823302;29;20031;-57
2022/07/29 11:40:08;;;;;;;0.20;0.20;;;;;;;14.98;82.21;101051.84;4822446;29;20515;-57
2022/07/29 11:42:38;;;;;;;1.15;0.40;;;;;;;14.93;82.26;101051.69;4822722;29;20121;-57
2022/07/29 11:45:16;;;;;;;0.90;0.40;;;;;;;14.82;82.92;101044.41;4823216;29;20044;-57
2022/07/29 11:47:52;;;;;;;1.33;0.40;;;;;;;14.87;82.29;101051.81;4823219;29;20042;-57